createdAt,value
2023-08-15T00:01:01.645Z,5.38
2023-08-15T00:03:28.517Z,5.30
2023-08-15T00:05:55.162Z,4.72
2023-08-15T00:08:21.720Z,4.75
2023-08-15T00:10:48.258Z,5.32
2023-08-15T00:13:16.194Z,5.32
2023-08-15T00:15:42.769Z,5.25
2023-08-15T00:18:09.332Z,5.50
2023-08-15T00:20:35.940Z,4.63
2023-08-15T00:23:02.475Z,4.35
2023-08-15T00:25:29.022Z,5.13
2023-08-15T00:27:55.666Z,4.88
2023-08-15T00:30:23.564Z,4.63
2023-08-15T00:32:50.190Z,5.35
2023-08-15T00:35:16.859Z,5.20
2023-08-15T00:37:43.401Z,4.80
2023-08-15T00:40:10.876Z,4.72
2023-08-15T00:42:37.416Z,4.53
2023-08-15T00:45:04.377Z,4.63
2023-08-15T00:47:32.320Z,4.75
2023-08-15T00:49:59.711Z,5.13
2023-08-15T00:52:26.847Z,5.43
2023-08-15T00:54:54.479Z,5.07
2023-08-15T00:57:22.740Z,4.82
2023-08-15T00:59:49.599Z,4.93
2023-08-15T01:02:16.247Z,4.78
2023-08-15T01:04:44.767Z,4.50
2023-08-15T01:07:11.791Z,4.72
2023-08-15T01:09:38.746Z,5.13
2023-08-15T01:12:16.649Z,4.70
2023-08-15T01:14:49.500Z,4.15
2023-08-15T01:17:21.593Z,4.70
2023-08-15T01:19:51.327Z,4.90
2023-08-15T01:22:22.713Z,5.15
2023-08-15T01:24:50.834Z,4.45
2023-08-15T01:27:17.411Z,4.78
2023-08-15T01:29:43.953Z,5.63
2023-08-15T01:32:17.183Z,5.78
2023-08-15T01:37:21.292Z,5.05
2023-08-15T01:39:51.939Z,5.15
2023-08-15T01:42:21.922Z,5.55
2023-08-15T01:44:48.933Z,4.80
2023-08-15T01:47:15.628Z,4.63
2023-08-15T01:49:42.198Z,4.07
2023-08-15T01:52:08.762Z,3.80
2023-08-15T01:54:35.486Z,3.53
2023-08-15T01:57:03.585Z,3.55
2023-08-15T01:59:30.392Z,3.75
2023-08-15T02:01:56.963Z,3.13
2023-08-15T02:04:23.612Z,2.70
2023-08-15T02:06:50.151Z,3.28
2023-08-15T02:09:17.393Z,2.70
2023-08-15T02:11:43.966Z,2.80
2023-08-15T02:14:11.816Z,2.95
2023-08-15T02:16:38.363Z,2.67
2023-08-15T02:19:04.912Z,2.65
2023-08-15T02:21:31.475Z,2.70
2023-08-15T02:23:58.013Z,2.50
2023-08-15T02:26:24.536Z,3.05
2023-08-15T02:28:51.052Z,2.30
2023-08-15T02:31:18.986Z,2.20
2023-08-15T02:33:45.624Z,2.22
2023-08-15T02:36:12.305Z,2.20
2023-08-15T02:38:38.843Z,2.42
2023-08-15T02:41:05.380Z,1.88
2023-08-15T02:43:31.933Z,2.20
2023-08-15T02:45:58.633Z,2.70
2023-08-15T02:48:26.503Z,2.13
2023-08-15T02:50:53.048Z,2.00
2023-08-15T02:53:19.633Z,2.25
2023-08-15T02:55:50.392Z,2.22
2023-08-15T02:58:16.951Z,2.00
2023-08-15T03:00:43.955Z,2.83
2023-08-15T03:03:10.613Z,2.13
2023-08-15T03:05:39.117Z,1.90
2023-08-15T03:08:06.244Z,2.13
2023-08-15T03:10:33.119Z,1.80
2023-08-15T03:12:59.685Z,2.67
2023-08-15T03:15:26.212Z,2.20
2023-08-15T03:17:52.760Z,1.83
2023-08-15T03:20:19.351Z,2.20
2023-08-15T03:22:47.196Z,1.90
2023-08-15T03:25:13.811Z,2.30
2023-08-15T03:27:40.353Z,2.17
2023-08-15T03:30:08.061Z,1.90
2023-08-15T03:32:34.666Z,2.00
2023-08-15T03:35:01.424Z,1.98
2023-08-15T03:37:27.995Z,2.33
2023-08-15T03:39:55.937Z,2.05
2023-08-15T03:42:22.522Z,1.88
2023-08-15T03:44:49.048Z,2.42
2023-08-15T03:47:15.586Z,2.35
2023-08-15T03:49:42.275Z,2.10
2023-08-15T03:52:08.840Z,2.20
2023-08-15T03:54:35.376Z,2.13
2023-08-15T03:57:03.755Z,2.38
2023-08-15T03:59:30.466Z,2.00
2023-08-15T04:01:59.058Z,2.20
2023-08-15T04:04:25.916Z,2.00
2023-08-15T04:06:52.412Z,3.15
2023-08-15T04:09:19.085Z,2.63
2023-08-15T04:11:45.830Z,2.15
2023-08-15T04:14:13.720Z,2.60
2023-08-15T04:16:40.277Z,2.42
2023-08-15T04:19:06.984Z,2.28
2023-08-15T04:21:33.565Z,1.85
2023-08-15T04:24:00.097Z,2.05
2023-08-15T04:26:26.625Z,2.38
2023-08-15T04:28:53.209Z,3.33
2023-08-15T04:31:21.122Z,2.30
2023-08-15T04:33:47.677Z,2.40
2023-08-15T04:36:14.244Z,2.47
2023-08-15T04:38:40.776Z,1.85
2023-08-15T04:41:07.372Z,1.67
2023-08-15T04:43:33.920Z,2.10
2023-08-15T04:46:00.485Z,3.33
2023-08-15T04:48:28.418Z,2.45
2023-08-15T04:50:54.933Z,2.05
2023-08-15T04:53:21.516Z,2.40
2023-08-15T04:55:48.037Z,2.63
2023-08-15T04:58:14.549Z,2.10
2023-08-15T05:00:41.086Z,2.00
2023-08-15T05:03:07.639Z,2.38
2023-08-15T05:05:35.618Z,2.17
2023-08-15T05:08:02.179Z,2.05
2023-08-15T05:10:28.702Z,2.30
2023-08-15T05:12:55.383Z,2.30
2023-08-15T05:15:21.898Z,2.20
2023-08-15T05:17:48.448Z,1.77
2023-08-15T05:20:14.990Z,2.45
2023-08-15T05:22:42.855Z,2.67
2023-08-15T05:25:09.514Z,2.60
2023-08-15T05:27:36.070Z,2.67
2023-08-15T05:30:02.606Z,2.42
2023-08-15T05:32:29.179Z,2.80
2023-08-15T05:34:55.750Z,2.90
2023-08-15T05:37:22.649Z,3.28
2023-08-15T05:39:50.944Z,2.75
2023-08-15T05:42:17.488Z,2.60
2023-08-15T05:44:44.204Z,3.33
2023-08-15T05:47:10.720Z,2.78
2023-08-15T05:49:37.230Z,2.42
2023-08-15T05:52:04.191Z,2.72
2023-08-15T05:54:30.702Z,2.45
2023-08-15T05:56:58.607Z,3.08
2023-08-15T05:59:25.190Z,2.75
2023-08-15T06:01:51.736Z,2.38
2023-08-15T06:04:18.292Z,2.53
2023-08-15T06:06:44.893Z,2.58
2023-08-15T06:09:11.473Z,2.38
2023-08-15T06:11:38.005Z,2.70
2023-08-15T06:14:05.981Z,2.55
2023-08-15T06:16:32.590Z,2.58
2023-08-15T06:18:59.124Z,3.00
2023-08-15T06:21:25.684Z,2.83
2023-08-15T06:23:52.196Z,3.20
2023-08-15T06:26:18.711Z,2.78
2023-08-15T06:28:45.266Z,2.78
2023-08-15T06:31:13.236Z,2.83
2023-08-15T06:33:39.839Z,2.85
2023-08-15T06:36:06.607Z,2.95
2023-08-15T06:38:33.171Z,2.88
2023-08-15T06:40:59.735Z,2.72
2023-08-15T06:43:26.363Z,2.30
2023-08-15T06:45:52.868Z,2.50
2023-08-15T06:48:20.766Z,2.95
2023-08-15T06:50:47.767Z,2.50
2023-08-15T06:53:14.435Z,2.67
2023-08-15T06:55:40.953Z,3.03
2023-08-15T06:58:07.499Z,2.95
2023-08-15T07:00:34.086Z,2.50
2023-08-15T07:03:00.790Z,2.50
2023-08-15T07:05:28.741Z,2.50
2023-08-15T07:07:55.262Z,2.42
2023-08-15T07:10:21.775Z,2.25
2023-08-15T07:12:48.288Z,2.67
2023-08-15T07:15:14.978Z,2.20
2023-08-15T07:17:41.566Z,2.42
2023-08-15T07:20:09.156Z,2.72
2023-08-15T07:22:37.050Z,2.42
2023-08-15T07:25:03.847Z,2.13
2023-08-15T07:27:30.374Z,2.67
2023-08-15T07:29:57.173Z,2.35
2023-08-15T07:32:23.894Z,2.08
2023-08-15T07:34:50.749Z,2.13
2023-08-15T07:37:17.286Z,2.45
2023-08-15T07:39:45.174Z,1.63
2023-08-15T07:42:11.783Z,1.67
2023-08-15T07:44:38.331Z,2.40
2023-08-15T07:47:05.207Z,2.05
2023-08-15T07:49:32.124Z,2.83
2023-08-15T07:51:58.787Z,2.15
2023-08-15T07:54:25.333Z,2.40
2023-08-15T07:56:53.199Z,2.10
2023-08-15T07:59:19.788Z,2.05
2023-08-15T08:01:46.396Z,2.13
2023-08-15T08:04:12.982Z,2.38
2023-08-15T08:06:41.380Z,2.38
2023-08-15T08:09:08.909Z,1.50
2023-08-15T08:11:35.440Z,2.38
2023-08-15T08:14:03.626Z,1.92
2023-08-15T08:16:30.693Z,1.55
2023-08-15T08:18:57.300Z,1.90
2023-08-15T08:21:23.899Z,2.47
2023-08-15T08:23:50.449Z,2.38
2023-08-15T08:26:17.000Z,2.00
2023-08-15T08:28:43.550Z,1.95
2023-08-15T08:31:11.419Z,2.40
2023-08-15T08:33:37.920Z,1.73
2023-08-15T08:36:05.054Z,2.30
2023-08-15T08:38:31.589Z,1.55
2023-08-15T08:40:58.503Z,1.75
2023-08-15T08:43:25.488Z,1.67
2023-08-15T08:45:56.836Z,2.17
2023-08-15T08:48:24.748Z,2.00
2023-08-15T08:50:52.008Z,2.08
2023-08-15T08:53:18.592Z,1.83
2023-08-15T08:55:48.743Z,2.10
2023-08-15T08:58:15.634Z,1.85
2023-08-15T09:00:42.669Z,1.70
2023-08-15T09:03:09.721Z,1.45
2023-08-15T09:05:37.982Z,1.77
2023-08-15T09:08:05.155Z,2.08
2023-08-15T09:10:31.890Z,1.80
2023-08-15T09:12:59.554Z,2.00
2023-08-15T09:15:26.370Z,1.40
2023-08-15T09:17:59.085Z,2.20
2023-08-15T09:20:25.865Z,2.00
2023-08-15T09:22:57.114Z,1.48
2023-08-15T09:25:24.820Z,1.70
2023-08-15T09:27:51.339Z,1.70
2023-08-15T09:30:18.657Z,1.70
2023-08-15T09:32:46.798Z,1.35
2023-08-15T09:35:15.239Z,1.45
2023-08-15T09:37:42.342Z,1.67
2023-08-15T09:40:12.581Z,1.63
2023-08-15T09:42:39.309Z,1.65
2023-08-15T09:45:08.524Z,1.40
2023-08-15T09:47:37.974Z,1.67
2023-08-15T09:50:06.067Z,1.60
2023-08-15T09:52:32.609Z,2.15
2023-08-15T09:54:59.455Z,1.55
2023-08-15T09:57:27.440Z,1.67
2023-08-15T09:59:54.007Z,2.03
2023-08-15T10:02:23.424Z,1.45
2023-08-15T10:04:57.300Z,1.55
2023-08-15T10:07:26.227Z,2.10
2023-08-15T10:09:54.069Z,1.70
2023-08-15T10:12:21.325Z,2.10
2023-08-15T10:14:50.017Z,1.63
2023-08-15T10:17:17.689Z,1.63
2023-08-15T10:19:46.650Z,1.55
2023-08-15T10:22:18.161Z,1.98
2023-08-15T10:24:44.879Z,1.65
2023-08-15T10:27:13.852Z,1.80
2023-08-15T10:29:55.048Z,1.67
2023-08-15T10:32:24.507Z,1.40
2023-08-15T10:34:53.627Z,2.28
2023-08-15T10:37:27.471Z,1.73
2023-08-15T10:40:06.595Z,1.40
2023-08-15T10:43:06.507Z,1.35
2023-08-15T10:45:36.442Z,1.58
2023-08-15T10:48:05.831Z,1.67
2023-08-15T10:50:33.732Z,1.60
2023-08-15T10:53:01.663Z,1.50
2023-08-15T10:55:29.454Z,1.23
2023-08-15T10:57:56.680Z,1.48
2023-08-15T11:00:24.349Z,1.33
2023-08-15T11:02:52.781Z,1.50
2023-08-15T11:05:41.319Z,1.60
2023-08-15T11:08:12.534Z,1.73
2023-08-15T11:10:43.860Z,1.05
2023-08-15T11:13:10.572Z,1.45
2023-08-15T11:15:37.439Z,1.48
2023-08-15T11:18:05.672Z,1.50
2023-08-15T11:20:32.404Z,1.23
2023-08-15T11:22:59.378Z,1.40
2023-08-15T11:25:26.127Z,2.05
2023-08-15T11:27:52.695Z,1.50
2023-08-15T11:30:19.788Z,1.40
2023-08-15T11:32:46.875Z,1.30
2023-08-15T11:35:14.791Z,1.98
2023-08-15T11:37:42.045Z,1.63
2023-08-15T11:40:09.180Z,2.05
2023-08-15T11:42:36.278Z,1.33
2023-08-15T11:45:09.549Z,1.30
2023-08-15T11:47:36.182Z,1.85
2023-08-15T11:50:09.108Z,1.40
2023-08-15T11:52:42.872Z,1.20
2023-08-15T11:55:10.799Z,1.30
2023-08-15T11:57:37.587Z,1.17
2023-08-15T12:00:06.079Z,1.20
2023-08-15T12:02:34.707Z,1.63
2023-08-15T12:05:09.304Z,1.30
2023-08-15T12:07:36.400Z,1.05
2023-08-15T12:10:05.962Z,1.40
2023-08-15T12:12:37.906Z,1.30
2023-08-15T12:15:05.873Z,1.25
2023-08-15T12:17:32.459Z,1.58
2023-08-15T12:19:59.019Z,1.35
2023-08-15T12:22:27.537Z,1.80
2023-08-15T12:24:57.383Z,1.20
2023-08-15T12:27:25.428Z,1.45
2023-08-15T12:30:12.489Z,1.23
2023-08-15T12:32:38.508Z,1.55
2023-08-15T12:35:06.393Z,1.17
2023-08-15T12:37:32.921Z,1.15
2023-08-15T12:39:59.443Z,1.60
2023-08-15T12:42:27.666Z,0.80
2023-08-15T12:44:54.483Z,1.58
2023-08-15T12:47:21.039Z,0.88
2023-08-15T12:49:47.679Z,1.13
2023-08-15T12:52:14.204Z,1.38
2023-08-15T12:54:40.785Z,1.40
2023-08-15T12:57:07.325Z,1.30
2023-08-15T12:59:35.452Z,1.35
2023-08-15T13:02:02.124Z,1.30
2023-08-15T13:04:28.681Z,1.30
2023-08-15T13:06:55.266Z,1.05
2023-08-15T13:09:21.784Z,1.10
2023-08-15T13:11:48.336Z,1.45
2023-08-15T13:14:14.882Z,1.10
2023-08-15T13:16:42.807Z,1.30
2023-08-15T13:19:09.420Z,1.23
2023-08-15T13:21:36.010Z,1.00
2023-08-15T13:24:02.652Z,1.30
2023-08-15T13:26:29.179Z,1.02
2023-08-15T13:28:55.706Z,1.30
2023-08-15T13:31:22.295Z,1.10
2023-08-15T13:33:50.172Z,1.58
2023-08-15T13:36:16.740Z,1.50
2023-08-15T13:38:43.314Z,1.27
2023-08-15T13:41:09.953Z,1.15
2023-08-15T13:43:36.476Z,1.30
2023-08-15T13:46:03.970Z,1.10
2023-08-15T13:48:30.592Z,0.95
2023-08-15T13:50:58.464Z,1.13
2023-08-15T13:53:24.991Z,0.90
2023-08-15T13:55:51.533Z,1.25
2023-08-15T13:58:18.071Z,1.00
2023-08-15T14:00:44.717Z,0.98
2023-08-15T14:03:11.363Z,1.20
2023-08-15T14:05:37.948Z,0.93
2023-08-15T14:08:07.085Z,1.00
2023-08-15T14:10:34.743Z,0.80
2023-08-15T14:13:01.383Z,1.00
2023-08-15T14:15:27.931Z,1.08
2023-08-15T14:17:54.625Z,0.80
2023-08-15T14:20:21.169Z,1.02
2023-08-15T14:22:47.705Z,0.90
2023-08-15T14:25:15.568Z,0.90
2023-08-15T14:27:42.118Z,1.20
2023-08-15T14:30:09.643Z,1.10
2023-08-15T14:32:36.230Z,0.80
2023-08-15T14:35:02.952Z,1.02
2023-08-15T14:37:29.506Z,0.88
2023-08-15T14:39:56.039Z,0.73
2023-08-15T14:42:24.257Z,0.90
2023-08-15T14:44:52.384Z,1.00
2023-08-15T14:47:27.559Z,1.10
2023-08-15T14:49:54.226Z,1.00
2023-08-15T14:52:21.047Z,0.80
2023-08-15T14:54:47.741Z,0.93
2023-08-15T14:57:14.266Z,1.02
2023-08-15T14:59:42.126Z,0.80
2023-08-15T15:02:08.749Z,1.17
2023-08-15T15:04:35.366Z,1.15
2023-08-15T15:07:01.944Z,0.98
2023-08-15T15:09:28.557Z,1.10
2023-08-15T15:11:55.827Z,1.20
2023-08-15T15:14:22.412Z,1.00
2023-08-15T15:16:50.333Z,1.05
2023-08-15T15:19:16.913Z,0.90
2023-08-15T15:21:43.515Z,0.77
2023-08-15T15:24:10.131Z,0.75
2023-08-15T15:26:36.701Z,1.00
2023-08-15T15:29:03.364Z,0.80
2023-08-15T15:31:29.954Z,1.27
2023-08-15T15:33:57.880Z,1.17
2023-08-15T15:36:24.452Z,1.02
2023-08-15T15:38:50.963Z,1.20
2023-08-15T15:41:17.521Z,1.20
2023-08-15T15:43:44.455Z,1.33
2023-08-15T15:46:12.333Z,1.00
2023-08-15T15:48:39.040Z,0.90
2023-08-15T15:51:06.944Z,1.08
2023-08-15T15:53:33.464Z,1.20
2023-08-15T15:56:00.046Z,1.20
2023-08-15T15:58:26.642Z,0.88
2023-08-15T16:00:55.542Z,0.93
2023-08-15T16:03:22.181Z,1.00
2023-08-15T16:05:48.892Z,1.73
2023-08-15T16:08:16.869Z,1.35
2023-08-15T16:10:43.545Z,1.05
2023-08-15T16:13:10.077Z,1.23
2023-08-15T16:15:36.709Z,1.00
2023-08-15T16:18:03.727Z,1.08
2023-08-15T16:20:30.421Z,1.30
2023-08-15T16:22:56.976Z,1.10
2023-08-15T16:25:25.286Z,1.25
2023-08-15T16:27:51.874Z,1.35
2023-08-15T16:30:18.895Z,1.77
2023-08-15T16:32:45.804Z,2.00
2023-08-15T16:35:12.520Z,1.73
2023-08-15T16:37:39.045Z,1.85
2023-08-15T16:40:06.630Z,1.30
2023-08-15T16:42:34.520Z,2.05
2023-08-15T16:45:01.031Z,2.10
2023-08-15T16:47:27.633Z,2.20
2023-08-15T16:49:54.329Z,2.47
2023-08-15T16:52:21.257Z,1.98
2023-08-15T16:54:48.026Z,2.85
2023-08-15T16:57:14.980Z,2.00
2023-08-15T16:59:42.825Z,2.35
2023-08-15T17:02:09.351Z,2.58
2023-08-15T17:04:35.993Z,1.80
2023-08-15T17:07:02.566Z,2.40
2023-08-15T17:09:29.363Z,2.38
2023-08-15T17:11:56.178Z,2.40
2023-08-15T17:14:22.794Z,2.17
2023-08-15T17:16:50.787Z,2.38
2023-08-15T17:19:18.880Z,2.30
2023-08-15T17:21:45.604Z,2.40
2023-08-15T17:24:12.215Z,3.00
2023-08-15T17:26:38.752Z,2.47
2023-08-15T17:29:05.497Z,3.22
2023-08-15T17:31:32.086Z,2.60
2023-08-15T17:33:59.969Z,2.88
2023-08-15T17:36:26.464Z,2.70
2023-08-15T17:38:52.996Z,2.63
2023-08-15T17:41:19.548Z,2.80
2023-08-15T17:43:46.092Z,2.65
2023-08-15T17:46:12.759Z,2.58
2023-08-15T17:48:39.282Z,2.25
2023-08-15T17:51:07.235Z,2.65
2023-08-15T17:53:33.748Z,2.70
2023-08-15T17:56:00.283Z,2.40
2023-08-15T17:58:30.532Z,2.60
2023-08-15T18:00:57.078Z,2.55
2023-08-15T18:03:23.663Z,2.45
2023-08-15T18:05:50.330Z,2.80
2023-08-15T18:08:18.538Z,2.65
2023-08-15T18:10:45.192Z,2.83
2023-08-15T18:13:11.878Z,2.17
2023-08-15T18:15:38.564Z,2.20
2023-08-15T18:18:05.693Z,1.60
2023-08-15T18:20:32.443Z,1.75
2023-08-15T18:22:59.005Z,1.98
2023-08-15T18:25:26.877Z,2.42
2023-08-15T18:27:53.446Z,1.98
2023-08-15T18:30:20.001Z,1.83
2023-08-15T18:32:46.628Z,1.75
2023-08-15T18:35:13.263Z,1.92
2023-08-15T18:37:40.342Z,1.70
2023-08-15T18:40:08.070Z,1.67
2023-08-15T18:42:36.007Z,1.52
2023-08-15T18:45:02.678Z,1.88
2023-08-15T18:47:29.311Z,2.00
2023-08-15T18:49:55.982Z,1.77
2023-08-15T18:52:22.945Z,1.80
2023-08-15T18:54:49.669Z,1.60
2023-08-15T18:57:16.267Z,1.55
2023-08-15T18:59:44.532Z,1.77
2023-08-15T19:02:11.449Z,1.45
2023-08-15T19:04:38.002Z,1.70
2023-08-15T19:07:04.879Z,1.90
2023-08-15T19:09:31.462Z,2.70
2023-08-15T19:11:58.872Z,2.03
2023-08-15T19:14:26.005Z,2.10
2023-08-15T19:16:53.866Z,1.67
2023-08-15T19:19:20.498Z,1.58
2023-08-15T19:21:47.018Z,1.75
2023-08-15T19:24:14.106Z,1.50
2023-08-15T19:26:41.530Z,1.67
2023-08-15T19:29:08.208Z,1.50
2023-08-15T19:31:34.789Z,1.70
2023-08-15T19:34:02.780Z,1.45
2023-08-15T19:36:29.716Z,1.60
2023-08-15T19:38:56.361Z,1.95
2023-08-15T19:41:22.933Z,2.00
2023-08-15T19:43:49.432Z,2.00
2023-08-15T19:46:16.529Z,2.25
2023-08-15T19:48:43.931Z,1.88
2023-08-15T19:51:11.836Z,2.50
2023-08-15T19:53:38.413Z,1.90
2023-08-15T19:56:05.183Z,2.40
2023-08-15T19:58:31.726Z,2.10
2023-08-15T20:00:58.808Z,2.60
2023-08-15T20:03:25.442Z,2.70
2023-08-15T20:05:51.984Z,2.70
2023-08-15T20:08:20.280Z,2.30
2023-08-15T20:10:50.512Z,2.30
2023-08-15T20:13:17.050Z,2.47
2023-08-15T20:15:43.645Z,2.70
2023-08-15T20:18:10.219Z,2.17
2023-08-15T20:20:36.864Z,2.70
2023-08-15T20:23:03.516Z,2.80
2023-08-15T20:25:31.845Z,2.75
2023-08-15T20:27:58.498Z,2.83
2023-08-15T20:30:25.686Z,2.80
2023-08-15T20:32:52.330Z,2.42
2023-08-15T20:35:18.958Z,2.60
2023-08-15T20:37:45.644Z,2.63
2023-08-15T20:40:12.651Z,3.00
2023-08-15T20:42:40.528Z,3.10
2023-08-15T20:45:08.506Z,2.30
2023-08-15T20:47:35.167Z,2.17
2023-08-15T20:50:01.760Z,2.55
2023-08-15T20:52:28.332Z,2.63
2023-08-15T20:54:54.852Z,2.38
2023-08-15T20:57:21.466Z,2.63
2023-08-15T20:59:49.528Z,2.65
2023-08-15T21:02:16.140Z,2.70
2023-08-15T21:04:42.717Z,2.47
2023-08-15T21:07:09.354Z,2.47
2023-08-15T21:09:36.372Z,2.42
2023-08-15T21:12:03.202Z,2.75
2023-08-15T21:14:29.792Z,2.40
2023-08-15T21:16:57.865Z,2.13
2023-08-15T21:19:24.564Z,2.00
2023-08-15T21:21:51.148Z,1.98
2023-08-15T21:24:17.673Z,1.98
2023-08-15T21:26:45.844Z,2.03
2023-08-15T21:29:12.369Z,2.20
2023-08-15T21:31:38.948Z,2.15
2023-08-15T21:34:06.877Z,1.90
2023-08-15T21:36:33.396Z,2.67
2023-08-15T21:38:59.986Z,1.80
2023-08-15T21:41:26.512Z,1.75
2023-08-15T21:43:53.081Z,2.35
2023-08-15T21:46:19.624Z,1.90
2023-08-15T21:48:46.179Z,2.22
2023-08-15T21:51:14.086Z,1.85
2023-08-15T21:53:40.657Z,2.30
2023-08-15T21:56:07.287Z,2.17
2023-08-15T21:58:33.792Z,1.95
2023-08-15T22:01:00.367Z,2.20
2023-08-15T22:03:26.963Z,1.88
2023-08-15T22:05:53.573Z,2.30
2023-08-15T22:08:21.534Z,2.40
2023-08-15T22:10:48.093Z,2.47
2023-08-15T22:13:14.956Z,2.25
2023-08-15T22:15:41.698Z,2.25
2023-08-15T22:18:19.737Z,2.10
2023-08-15T22:20:47.486Z,2.20
2023-08-15T22:23:14.051Z,2.58
2023-08-15T22:25:45.728Z,2.17
2023-08-15T22:28:12.256Z,2.60
2023-08-15T22:30:38.970Z,2.30
2023-08-15T22:33:06.062Z,2.40
2023-08-15T22:35:36.358Z,2.20
2023-08-15T22:38:03.068Z,2.15
2023-08-15T22:40:29.661Z,2.00
2023-08-15T22:42:57.568Z,2.20
2023-08-15T22:45:24.586Z,2.35
2023-08-15T22:47:51.509Z,2.30
2023-08-15T22:50:18.122Z,2.40
2023-08-15T22:52:44.820Z,2.55
2023-08-15T22:55:11.404Z,2.50
2023-08-15T22:57:37.943Z,2.33
2023-08-15T23:00:07.338Z,2.55
2023-08-15T23:02:33.865Z,2.28
2023-08-15T23:05:00.438Z,2.95
2023-08-15T23:07:26.968Z,2.20
2023-08-15T23:09:53.606Z,2.20
2023-08-15T23:12:20.147Z,2.40
2023-08-15T23:14:46.724Z,2.10
2023-08-15T23:17:14.643Z,2.45
2023-08-15T23:19:41.179Z,2.13
2023-08-15T23:22:07.725Z,2.38
2023-08-15T23:24:34.231Z,2.40
2023-08-15T23:27:00.785Z,2.85
2023-08-15T23:29:27.312Z,3.03
2023-08-15T23:31:53.871Z,2.65
2023-08-15T23:34:21.778Z,2.70
2023-08-15T23:36:48.607Z,2.42
2023-08-15T23:39:15.131Z,2.45
2023-08-15T23:41:41.667Z,2.60
2023-08-15T23:44:08.183Z,2.78
2023-08-15T23:46:34.962Z,2.70
2023-08-15T23:49:01.516Z,3.40
2023-08-15T23:51:29.426Z,2.35
2023-08-15T23:53:55.980Z,3.67
2023-08-15T23:56:22.487Z,2.65
2023-08-15T23:58:48.998Z,3.13
